Time;durP1;ratioP1;P1;durP2;ratioP2;P2;SDS_P1;SDS_P2;PMS_P1;PMS_P2;Temp;Humidity;BMP_temperature;BMP_pressure;BME280_temperature;BME280_humidity;BME280_pressure;Samples;Min_cycle;Max_cycle;Signal;HPM_P1;HPM_P2
2023/05/03 00:02:25;;;;;;;8.30;5.30;;;;;;;10.18;97.51;97275.92;109206;1266;62251;-85
2023/05/03 00:04:59;;;;;;;5.90;5.10;;;;;;;10.17;97.25;97271.95;109137;1266;22468;-85
2023/05/03 00:07:31;;;;;;;7.20;4.90;;;;;;;10.20;97.17;97268.67;109201;1272;22492;-85
2023/05/03 00:10:02;;;;;;;6.60;5.10;;;;;;;10.25;97.27;97265.52;109193;1272;22538;-85
2023/05/03 00:12:33;;;;;;;6.40;5.20;;;;;;;10.30;97.24;97268.48;109140;1266;57071;-85
2023/05/03 00:15:04;;;;;;;7.30;6.00;;;;;;;10.35;97.30;97265.67;109185;1265;23026;-85
2023/05/03 00:17:38;;;;;;;7.20;5.10;;;;;;;10.40;97.16;97259.17;109147;1272;22522;-85
2023/05/03 00:20:18;;;;;;;6.40;5.50;;;;;;;10.43;96.93;97258.66;109168;1266;22522;-85
2023/05/03 00:22:49;;;;;;;6.60;5.30;;;;;;;10.44;96.72;97255.74;109100;1265;24331;-85
2023/05/03 00:25:20;;;;;;;6.00;5.10;;;;;;;10.39;96.24;97258.52;109166;1272;22665;-84
2023/05/03 00:27:51;;;;;;;6.90;5.70;;;;;;;10.27;95.89;97253.67;109207;1272;22528;-85
2023/05/03 00:30:22;;;;;;;8.10;5.50;;;;;;;10.19;96.10;97257.43;109244;1272;23474;-84
2023/05/03 00:32:53;;;;;;;6.90;4.90;;;;;;;10.15;96.11;97254.02;109201;1272;22466;-84
2023/05/03 00:35:24;;;;;;;8.70;5.90;;;;;;;10.09;96.06;97255.58;109224;1249;22535;-84
2023/05/03 00:37:55;;;;;;;8.40;6.10;;;;;;;10.05;96.31;97256.36;109190;1272;22452;-84
2023/05/03 00:40:27;;;;;;;7.00;5.90;;;;;;;10.04;96.57;97258.55;109166;1272;25437;-85
2023/05/03 00:42:58;;;;;;;7.00;5.70;;;;;;;10.07;96.82;97261.08;109097;1272;72573;-85
2023/05/03 00:45:29;;;;;;;7.10;6.10;;;;;;;10.11;97.23;97257.34;109146;1272;22517;-84
2023/05/03 00:48:01;;;;;;;8.70;5.70;;;;;;;10.16;97.33;97262.08;109235;1266;25476;-85
2023/05/03 00:50:32;;;;;;;10.70;7.90;;;;;;;10.20;97.50;97267.08;109203;1269;22535;-85
2023/05/03 00:53:03;;;;;;;10.60;6.50;;;;;;;10.24;97.64;97267.53;109196;1266;58045;-85
2023/05/03 00:55:44;;;;;;;8.50;6.00;;;;;;;10.29;97.46;97264.83;109227;1264;22526;-85
2023/05/03 00:58:16;;;;;;;6.50;5.70;;;;;;;10.31;97.41;97263.55;109192;1266;22508;-84
2023/05/03 01:00:56;;;;;;;7.70;5.80;;;;;;;10.35;97.46;97260.75;109218;1270;22515;-84
2023/05/03 01:03:30;;;;;;;7.10;5.90;;;;;;;10.39;97.47;97260.59;109112;1269;92238;-84
2023/05/03 01:06:21;;;;;;;7.80;6.10;;;;;;;10.45;97.35;97262.69;109187;1266;25443;-85
2023/05/03 01:09:03;;;;;;;6.60;5.30;;;;;;;10.48;97.10;97266.84;109165;1268;24312;-84
2023/05/03 01:11:47;;;;;;;8.40;6.70;;;;;;;10.47;96.75;97268.95;109217;1269;22508;-84
2023/05/03 01:14:32;;;;;;;8.20;7.30;;;;;;;10.41;96.10;97271.11;109140;1265;50548;-85
2023/05/03 01:17:12;;;;;;;8.80;6.90;;;;;;;10.27;95.77;97273.02;109191;1259;25939;-84
2023/05/03 01:19:50;;;;;;;8.30;7.40;;;;;;;10.20;95.96;97270.73;109179;1265;25943;-85
2023/05/03 01:22:30;;;;;;;7.60;6.40;;;;;;;10.21;96.14;97267.30;109074;1268;22529;-84
2023/05/03 01:25:15;;;;;;;9.00;6.70;;;;;;;10.26;96.42;97268.77;109202;1266;22517;-84
2023/05/03 01:27:53;;;;;;;8.20;6.60;;;;;;;10.31;96.52;97266.52;109241;1272;22518;-85
2023/05/03 01:30:34;;;;;;;8.00;6.50;;;;;;;10.33;96.53;97267.27;109259;1266;22511;-84
2023/05/03 01:33:17;;;;;;;8.60;6.90;;;;;;;10.30;96.47;97267.48;109119;1265;80674;-85
2023/05/03 01:35:54;;;;;;;8.30;7.10;;;;;;;10.26;96.54;97265.73;109176;1266;22511;-85
2023/05/03 01:38:29;;;;;;;9.60;6.90;;;;;;;10.21;96.48;97268.27;109258;1269;22817;-85
2023/05/03 01:41:06;;;;;;;8.30;7.20;;;;;;;10.18;96.63;97267.02;109216;1266;23284;-85
2023/05/03 01:43:38;;;;;;;11.10;8.60;;;;;;;10.12;96.59;97269.05;109152;1272;76992;-84
2023/05/03 01:46:10;;;;;;;9.70;8.10;;;;;;;10.12;96.61;97272.23;109198;1266;24318;-84
2023/05/03 01:48:47;;;;;;;10.10;8.40;;;;;;;10.12;96.66;97272.06;109181;1266;22523;-84
2023/05/03 01:51:21;;;;;;;9.20;8.30;;;;;;;10.13;96.71;97271.71;109203;1272;24209;-84
2023/05/03 01:53:53;;;;;;;10.40;8.40;;;;;;;10.18;96.84;97273.91;109122;1265;51866;-84
2023/05/03 01:56:25;;;;;;;10.30;8.10;;;;;;;10.22;96.57;97276.75;109165;1272;22471;-84
2023/05/03 01:58:57;;;;;;;11.50;9.40;;;;;;;10.15;96.01;97277.49;109211;1269;23236;-84
2023/05/03 02:01:36;;;;;;;10.50;8.70;;;;;;;10.06;95.79;97278.73;109205;1267;22511;-84
2023/05/03 02:04:08;;;;;;;;;;;;;;;9.97;95.92;97281.58;109079;1265;127259;-84
2023/05/03 02:06:41;;;;;;;11.30;9.20;;;;;;;9.91;96.13;97280.25;109250;1265;22532;-84
2023/05/03 02:09:16;;;;;;;11.40;10.20;;;;;;;9.86;96.46;97274.29;109172;1265;22513;-84
2023/05/03 02:11:48;;;;;;;12.80;10.90;;;;;;;9.86;96.80;97278.80;109221;1265;22700;-84
2023/05/03 02:14:28;;;;;;;10.00;8.90;;;;;;;9.87;97.07;97274.02;109063;1272;125899;-84
2023/05/03 02:17:03;;;;;;;11.20;10.00;;;;;;;9.95;97.45;97270.67;109196;1265;22561;-84
2023/05/03 02:19:34;;;;;;;11.40;9.80;;;;;;;10.02;97.55;97271.88;109159;1250;22986;-84
2023/05/03 02:22:07;;;;;;;12.20;9.40;;;;;;;10.06;97.53;97264.37;109166;1266;22474;-85
2023/05/03 02:24:42;;;;;;;11.10;9.50;;;;;;;10.11;97.54;97262.10;107797;1265;1811387;-84
2023/05/03 02:27:14;;;;;;;9.70;8.70;;;;;;;10.14;97.56;97260.65;109182;1253;22630;-84
2023/05/03 02:29:48;;;;;;;10.50;9.10;;;;;;;10.16;97.42;97258.90;109201;1272;24209;-84
2023/05/03 02:32:20;;;;;;;10.70;9.10;;;;;;;10.17;97.34;97251.06;109193;1265;24183;-84
2023/05/03 02:34:54;;;;;;;10.00;9.00;;;;;;;10.18;97.25;97249.85;109201;1267;62637;-84
2023/05/03 02:37:26;;;;;;;9.80;7.80;;;;;;;10.19;97.21;97248.20;109137;1272;22545;-85
2023/05/03 02:40:00;;;;;;;10.00;8.70;;;;;;;10.16;97.24;97256.52;109192;1266;22521;-84
2023/05/03 02:42:35;;;;;;;9.90;7.90;;;;;;;10.14;97.18;97258.64;109195;1272;58978;-85
2023/05/03 02:45:08;;;;;;;10.30;8.00;;;;;;;10.16;97.27;97257.69;109172;1272;22574;-84
2023/05/03 02:47:43;;;;;;;9.90;8.50;;;;;;;10.18;97.32;97254.46;109168;1272;22559;-85
2023/05/03 02:50:18;;;;;;;11.60;8.20;;;;;;;10.17;97.09;97259.02;109197;1269;22463;-85
2023/05/03 02:52:52;;;;;;;8.90;7.90;;;;;;;10.17;97.14;97258.23;109150;1265;45928;-85
2023/05/03 02:55:23;;;;;;;10.30;8.50;;;;;;;10.18;97.20;97260.77;109157;1266;24224;-85
2023/05/03 02:57:55;;;;;;;9.70;7.40;;;;;;;10.20;97.12;97263.41;109184;1269;22552;-84
2023/05/03 03:00:30;;;;;;;9.60;8.10;;;;;;;10.22;97.13;97263.40;109170;1266;23743;-84
2023/05/03 03:03:02;;;;;;;10.00;8.70;;;;;;;10.23;97.03;97260.02;109159;1272;29109;-84
2023/05/03 03:05:35;;;;;;;10.30;8.50;;;;;;;10.24;97.10;97262.50;109112;1265;22476;-84
2023/05/03 03:08:10;;;;;;;9.00;8.10;;;;;;;10.28;97.19;97265.77;109175;1269;22516;-84
2023/05/03 03:10:44;;;;;;;10.60;8.20;;;;;;;10.29;97.01;97267.58;109180;1269;22551;-84
2023/05/03 03:13:16;;;;;;;9.50;8.20;;;;;;;10.29;96.89;97267.05;109189;1262;23396;-84
2023/05/03 03:15:48;;;;;;;9.80;8.30;;;;;;;10.31;96.91;97267.36;109154;1250;22517;-84
2023/05/03 03:18:21;;;;;;;8.70;7.70;;;;;;;10.33;96.89;97264.30;109162;1269;23254;-84
2023/05/03 03:20:52;;;;;;;9.50;7.70;;;;;;;10.35;96.88;97264.46;109140;1272;25224;-84
2023/05/03 03:23:26;;;;;;;8.30;7.40;;;;;;;10.37;96.75;97266.15;109105;1272;46104;-84
2023/05/03 03:26:00;;;;;;;8.20;7.30;;;;;;;10.37;96.61;97265.99;109233;1266;23150;-85
2023/05/03 03:28:33;;;;;;;8.00;7.20;;;;;;;10.36;96.60;97264.20;109176;1266;22625;-84
2023/05/03 03:31:09;;;;;;;8.40;7.50;;;;;;;10.38;96.57;97266.27;109214;1272;25281;-85
2023/05/03 03:33:44;;;;;;;9.70;7.90;;;;;;;10.36;96.45;97267.69;109070;1267;58453;-84
2023/05/03 03:36:17;;;;;;;8.50;7.60;;;;;;;10.34;96.41;97271.03;109152;1265;24235;-85
2023/05/03 03:38:55;;;;;;;9.70;7.90;;;;;;;10.34;96.53;97272.73;109162;1269;22541;-85
2023/05/03 03:41:36;;;;;;;9.50;8.10;;;;;;;10.36;96.47;97277.70;109169;1269;24225;-85
2023/05/03 03:44:12;;;;;;;8.90;7.40;;;;;;;10.37;96.43;97274.43;109151;1269;35578;-85
2023/05/03 03:46:47;;;;;;;9.90;8.00;;;;;;;10.39;96.40;97277.08;109180;1272;22512;-84
2023/05/03 03:49:19;;;;;;;9.50;8.50;;;;;;;10.40;96.39;97277.56;109165;1269;23824;-84
2023/05/03 03:51:56;;;;;;;9.40;8.30;;;;;;;10.43;96.39;97278.28;109162;1265;22521;-84
2023/05/03 03:54:27;;;;;;;10.60;9.30;;;;;;;10.47;96.30;97283.10;109134;1272;35978;-84
2023/05/03 03:56:58;;;;;;;11.10;8.80;;;;;;;10.48;96.16;97286.49;109130;1269;24294;-84
2023/05/03 03:59:31;;;;;;;9.10;8.20;;;;;;;10.44;95.94;97288.45;109173;1272;25418;-84
2023/05/03 04:02:02;;;;;;;8.30;7.50;;;;;;;10.35;95.83;97286.83;109161;1267;22507;-84
2023/05/03 04:04:34;;;;;;;8.40;7.60;;;;;;;10.27;95.92;97291.09;109111;1272;25103;-84
2023/05/03 04:07:05;;;;;;;11.00;8.10;;;;;;;10.24;96.11;97289.85;109198;1272;22576;-84
2023/05/03 04:09:36;;;;;;;9.00;7.90;;;;;;;10.21;96.24;97300.91;109136;1272;22502;-84
2023/05/03 04:12:07;;;;;;;9.50;8.10;;;;;;;10.18;96.34;97296.59;109134;1272;22508;-84
2023/05/03 04:14:38;;;;;;;9.60;8.30;;;;;;;10.17;96.70;97298.86;109069;1266;63310;-84
2023/05/03 04:17:09;;;;;;;9.40;8.50;;;;;;;10.21;96.74;97302.91;109015;1272;185154;-84
2023/05/03 04:19:40;;;;;;;9.60;8.50;;;;;;;10.26;97.04;97303.96;109179;1272;22600;-84
2023/05/03 04:22:11;;;;;;;9.50;8.00;;;;;;;10.30;97.08;97302.88;109181;1270;22512;-84
2023/05/03 04:24:42;;;;;;;9.70;8.70;;;;;;;10.30;96.99;97301.39;109110;1272;35105;-84
2023/05/03 04:27:14;;;;;;;9.80;8.30;;;;;;;10.27;97.03;97306.04;109127;1269;22666;-85
2023/05/03 04:29:45;;;;;;;9.00;8.10;;;;;;;10.26;97.19;97310.69;109144;1266;22519;-84
2023/05/03 04:32:22;;;;;;;9.60;8.60;;;;;;;10.24;97.38;97311.58;109117;1272;22481;-84
2023/05/03 04:34:54;;;;;;;10.00;8.80;;;;;;;10.27;97.50;97310.58;109210;1272;22642;-84
2023/05/03 04:37:26;;;;;;;10.40;9.30;;;;;;;10.29;97.58;97317.61;109149;1266;22582;-84
2023/05/03 04:39:57;;;;;;;10.90;9.20;;;;;;;10.29;97.50;97318.52;109192;1272;22543;-84
2023/05/03 04:42:28;;;;;;;10.30;9.30;;;;;;;10.28;97.51;97319.24;109094;1272;53718;-85
2023/05/03 04:45:01;;;;;;;11.30;10.10;;;;;;;10.24;97.39;97318.41;109154;1269;22571;-85
2023/05/03 04:47:35;;;;;;;11.70;10.20;;;;;;;10.17;97.31;97321.44;109144;1272;22514;-85
2023/05/03 04:50:09;;;;;;;11.10;9.90;;;;;;;10.16;97.67;97319.00;109160;1269;25262;-84
2023/05/03 04:52:41;;;;;;;12.30;10.50;;;;;;;10.21;98.01;97322.95;109136;1266;45604;-84
2023/05/03 04:55:12;;;;;;;12.20;9.80;;;;;;;10.28;98.25;97322.69;109146;1269;25236;-84
2023/05/03 04:57:44;;;;;;;15.30;13.00;;;;;;;10.35;98.25;97326.63;109144;1272;25411;-84
2023/05/03 05:00:16;;;;;;;12.10;10.90;;;;;;;10.40;98.00;97328.34;109167;1272;22524;-85
2023/05/03 05:02:47;;;;;;;11.70;10.50;;;;;;;10.37;97.86;97332.84;109079;1271;49956;-84
2023/05/03 05:05:19;;;;;;;13.50;10.80;;;;;;;10.34;97.78;97333.89;109141;1272;22525;-84
2023/05/03 05:07:50;;;;;;;12.90;11.40;;;;;;;10.35;97.97;97339.25;109180;1266;22508;-84
2023/05/03 05:10:21;;;;;;;12.50;11.20;;;;;;;10.37;98.07;97343.07;109119;1272;22509;-84
2023/05/03 05:12:52;;;;;;;12.80;11.50;;;;;;;10.35;98.04;97341.27;109152;1266;22532;-84
2023/05/03 05:15:23;;;;;;;13.60;12.00;;;;;;;10.34;98.03;97342.75;109118;1269;22554;-84
2023/05/03 05:17:54;;;;;;;13.00;11.60;;;;;;;10.37;98.20;97346.36;109189;1272;22518;-84
2023/05/03 05:20:25;;;;;;;14.10;11.90;;;;;;;10.38;98.15;97350.13;109188;1261;23267;-84
2023/05/03 05:22:56;;;;;;;13.30;11.70;;;;;;;10.37;98.26;97352.24;109108;1272;24649;-84
2023/05/03 05:25:27;;;;;;;12.40;11.10;;;;;;;10.34;98.30;97354.25;109120;1265;22562;-84
2023/05/03 05:27:59;;;;;;;12.90;11.50;;;;;;;10.32;98.66;97353.83;109177;1269;25274;-84
2023/05/03 05:30:30;;;;;;;12.90;11.60;;;;;;;10.29;98.50;97357.89;109162;1272;24055;-84
2023/05/03 05:33:01;;;;;;;14.00;12.60;;;;;;;10.27;98.44;97356.37;109102;1272;46737;-84
2023/05/03 05:35:34;;;;;;;13.60;12.20;;;;;;;10.25;98.68;97358.91;109141;1269;22471;-85
2023/05/03 05:38:05;;;;;;;14.30;12.50;;;;;;;10.24;98.86;97357.52;109131;1272;25397;-85
2023/05/03 05:40:36;;;;;;;14.90;12.50;;;;;;;10.23;98.91;97362.08;109182;1272;24007;-85
2023/05/03 05:43:08;;;;;;;14.10;12.40;;;;;;;10.27;98.95;97360.62;109146;1266;29434;-85
2023/05/03 05:45:40;;;;;;;14.70;12.60;;;;;;;10.31;99.24;97366.74;109274;1269;22550;-86
2023/05/03 05:48:12;;;;;;;13.50;12.00;;;;;;;10.32;99.52;97367.86;109189;1272;23243;-86
2023/05/03 05:50:44;;;;;;;13.50;11.90;;;;;;;10.27;99.94;97371.59;109183;1272;22479;-85
2023/05/03 05:53:16;;;;;;;14.00;12.60;;;;;;;10.20;100.00;97367.67;109093;1266;60836;-85
2023/05/03 05:55:47;;;;;;;14.50;12.60;;;;;;;10.20;100.00;97369.56;109157;1272;23096;-85
2023/05/03 05:58:20;;;;;;;14.00;12.50;;;;;;;10.20;100.00;97367.88;109141;1273;24215;-86
2023/05/03 06:00:54;;;;;;;13.00;11.00;;;;;;;10.23;100.00;97374.05;109171;1270;22659;-84
2023/05/03 06:03:25;;;;;;;13.30;12.00;;;;;;;10.24;100.00;97374.33;109182;1265;28313;-84
2023/05/03 06:05:59;;;;;;;13.10;11.60;;;;;;;10.23;100.00;97370.93;109163;1266;22528;-84
2023/05/03 06:08:31;;;;;;;14.20;12.70;;;;;;;10.20;100.00;97373.23;109176;1269;22645;-85
2023/05/03 06:11:03;;;;;;;13.80;12.40;;;;;;;10.18;100.00;97374.91;109115;1272;22673;-84
2023/05/03 06:13:37;;;;;;;15.00;13.30;;;;;;;10.22;100.00;97377.70;109120;1266;51567;-83
2023/05/03 06:16:09;;;;;;;14.70;13.10;;;;;;;10.25;100.00;97382.97;109152;1269;25411;-83
2023/05/03 06:18:40;;;;;;;14.70;13.10;;;;;;;10.28;100.00;97378.13;109159;1269;22512;-85
2023/05/03 06:21:12;;;;;;;16.20;13.80;;;;;;;10.25;100.00;97380.00;109180;1266;22509;-86
2023/05/03 06:23:45;;;;;;;15.50;13.90;;;;;;;10.23;100.00;97379.31;109117;1269;60659;-85
2023/05/03 06:26:17;;;;;;;16.00;14.30;;;;;;;10.24;100.00;97378.56;109156;1272;22459;-85
2023/05/03 06:28:49;;;;;;;16.30;14.70;;;;;;;10.22;100.00;97381.03;109154;1272;22608;-84
2023/05/03 06:31:21;;;;;;;18.40;16.60;;;;;;;10.19;100.00;97379.00;109127;1269;22562;-83
2023/05/03 06:33:52;;;;;;;18.10;16.20;;;;;;;10.12;100.00;97382.18;109275;1266;43092;-84
2023/05/03 06:36:24;;;;;;;17.90;16.00;;;;;;;10.15;100.00;97381.52;109151;1272;22468;-84
2023/05/03 06:38:55;;;;;;;20.10;18.00;;;;;;;10.18;100.00;97385.15;109218;1265;22507;-84
2023/05/03 06:41:30;;;;;;;18.60;16.80;;;;;;;10.22;100.00;97385.44;109181;1272;22566;-83
2023/05/03 06:44:02;;;;;;;19.50;17.50;;;;;;;10.26;100.00;97388.70;109156;1271;23941;-84
2023/05/03 06:46:34;;;;;;;18.30;16.40;;;;;;;10.27;100.00;97393.20;109177;1269;22518;-83
2023/05/03 06:49:05;;;;;;;20.20;18.20;;;;;;;10.26;100.00;97392.79;109181;1269;22550;-83
2023/05/03 06:51:36;;;;;;;21.10;18.80;;;;;;;10.26;100.00;97392.04;109175;1272;22516;-83
2023/05/03 06:54:08;;;;;;;20.00;17.60;;;;;;;10.29;100.00;97394.14;109141;1267;23720;-83
2023/05/03 06:56:40;;;;;;;20.60;18.40;;;;;;;10.39;100.00;97395.73;109201;1266;22586;-82
2023/05/03 06:59:11;;;;;;;19.30;17.20;;;;;;;10.48;100.00;97395.61;109154;1263;22448;-84
2023/05/03 07:01:44;;;;;;;19.50;17.50;;;;;;;10.52;100.00;97399.59;109173;1269;22533;-84
2023/05/03 07:04:20;;;;;;;19.00;17.00;;;;;;;10.56;100.00;97403.55;109166;1269;22682;-83
2023/05/03 07:06:52;;;;;;;18.80;16.30;;;;;;;10.62;100.00;97405.97;109115;1266;22540;-83
2023/05/03 07:09:23;;;;;;;17.20;14.80;;;;;;;10.60;100.00;97404.85;109212;1268;23684;-82
2023/05/03 07:11:55;;;;;;;19.20;15.80;;;;;;;10.63;100.00;97409.15;109182;1273;22475;-83
2023/05/03 07:14:26;;;;;;;17.10;15.10;;;;;;;10.66;100.00;97411.44;109176;1267;23405;-83
2023/05/03 07:16:58;;;;;;;17.30;15.50;;;;;;;10.71;100.00;97413.17;109213;1273;23748;-84
2023/05/03 07:19:29;;;;;;;17.30;15.50;;;;;;;10.76;100.00;97414.25;109176;1265;22481;-83
2023/05/03 07:22:02;;;;;;;15.90;14.20;;;;;;;10.78;100.00;97412.23;109179;1273;22548;-82
2023/05/03 07:24:35;;;;;;;16.60;14.90;;;;;;;10.78;100.00;97415.05;109186;1269;22517;-80
2023/05/03 07:27:07;;;;;;;16.00;14.30;;;;;;;10.79;100.00;97415.84;109164;1272;24174;-82
2023/05/03 07:29:40;;;;;;;17.10;15.30;;;;;;;10.82;100.00;97419.14;109106;1273;22651;-82
2023/05/03 07:32:14;;;;;;;16.60;14.90;;;;;;;10.87;100.00;97419.70;109154;1269;22501;-81
2023/05/03 07:34:45;;;;;;;17.30;14.80;;;;;;;10.93;100.00;97420.25;109072;1272;46318;-82
2023/05/03 07:37:17;;;;;;;16.50;14.80;;;;;;;10.98;100.00;97415.82;109073;1268;22515;-82
2023/05/03 07:39:48;;;;;;;16.00;14.20;;;;;;;11.03;100.00;97417.58;109146;1269;25116;-82
2023/05/03 07:42:19;;;;;;;16.70;15.00;;;;;;;11.07;100.00;97414.98;109217;1273;22676;-82
2023/05/03 07:44:51;;;;;;;17.10;15.40;;;;;;;11.14;100.00;97417.83;109145;1273;24199;-83
2023/05/03 07:47:33;;;;;;;16.40;14.10;;;;;;;11.21;100.00;97419.42;109169;1269;22507;-84
2023/05/03 07:50:05;;;;;;;15.60;13.90;;;;;;;11.24;100.00;97417.15;109102;1269;22517;-81
2023/05/03 07:52:38;;;;;;;15.00;13.40;;;;;;;11.18;100.00;97422.98;109163;1272;23623;-81
2023/05/03 07:55:11;;;;;;;14.20;12.70;;;;;;;11.12;100.00;97419.83;109105;1271;25278;-81
2023/05/03 07:57:42;;;;;;;13.60;12.20;;;;;;;11.06;100.00;97424.48;109162;1269;22578;-81
2023/05/03 08:00:16;;;;;;;14.30;12.00;;;;;;;10.99;100.00;97425.69;109096;1266;22982;-82
2023/05/03 08:02:47;;;;;;;12.70;11.40;;;;;;;10.94;100.00;97428.20;109195;1266;22556;-82
2023/05/03 08:05:20;;;;;;;13.80;11.90;;;;;;;10.89;100.00;97429.95;109179;1269;22620;-82
2023/05/03 08:07:52;;;;;;;14.00;12.50;;;;;;;10.85;100.00;97429.77;109098;1266;22524;-82
2023/05/03 08:10:23;;;;;;;18.70;15.70;;;;;;;10.85;100.00;97428.07;109159;1256;22519;-82
2023/05/03 08:12:54;;;;;;;16.00;14.40;;;;;;;10.87;100.00;97432.28;109138;1266;33855;-82
2023/05/03 08:15:26;;;;;;;16.30;14.70;;;;;;;10.92;100.00;97431.44;109120;1266;22686;-82
2023/05/03 08:17:57;;;;;;;18.30;16.40;;;;;;;11.00;100.00;97435.93;109161;1267;22776;-81
2023/05/03 08:20:35;;;;;;;15.20;13.50;;;;;;;11.09;100.00;97435.30;109112;1261;22524;-82
2023/05/03 08:23:06;;;;;;;17.10;15.00;;;;;;;11.16;100.00;97434.02;109157;1266;22476;-81
2023/05/03 08:25:38;;;;;;;17.90;15.80;;;;;;;11.22;100.00;97436.89;109114;1262;22533;-82
2023/05/03 08:28:09;;;;;;;16.60;14.40;;;;;;;11.27;100.00;97437.39;109122;1272;22472;-83
2023/05/03 08:30:40;;;;;;;17.90;15.00;;;;;;;11.31;100.00;97442.34;109110;1272;22558;-82
2023/05/03 08:33:11;;;;;;;15.60;13.90;;;;;;;11.36;100.00;97441.54;109158;1266;24224;-84
2023/05/03 08:35:42;;;;;;;14.50;12.80;;;;;;;11.38;100.00;97440.42;109109;1266;22514;-82
2023/05/03 08:38:14;;;;;;;15.20;13.50;;;;;;;11.37;100.00;97440.58;109130;1272;22560;-83
2023/05/03 08:40:48;;;;;;;14.00;12.60;;;;;;;11.39;100.00;97445.96;109121;1269;24006;-84
2023/05/03 08:43:24;;;;;;;13.90;11.90;;;;;;;11.44;100.00;97449.27;109149;1272;23355;-84
2023/05/03 08:45:55;;;;;;;14.30;12.10;;;;;;;11.47;100.00;97452.30;109136;1273;22551;-84
2023/05/03 08:48:26;;;;;;;12.90;11.50;;;;;;;11.45;99.82;97452.41;109116;1272;22525;-83
2023/05/03 08:51:00;;;;;;;13.70;12.30;;;;;;;11.47;99.71;97452.84;109133;1273;22532;-83
2023/05/03 08:53:32;;;;;;;14.20;12.80;;;;;;;11.54;99.85;97455.66;109110;1266;25313;-84
2023/05/03 08:56:08;;;;;;;13.80;12.40;;;;;;;11.64;99.93;97454.45;109085;1272;24301;-84
2023/05/03 08:58:39;;;;;;;14.20;12.80;;;;;;;11.70;99.72;97451.11;109146;1269;22628;-84
2023/05/03 09:01:13;;;;;;;14.20;12.10;;;;;;;11.76;99.66;97452.39;109144;1258;24339;-83
2023/05/03 09:03:51;;;;;;;14.60;12.80;;;;;;;11.79;99.46;97453.67;109160;1250;22515;-84
2023/05/03 09:06:25;;;;;;;13.40;12.20;;;;;;;11.76;99.23;97453.13;109181;1273;22508;-85
2023/05/03 09:08:56;;;;;;;14.30;12.60;;;;;;;11.69;98.90;97455.26;109106;1273;22470;-82
2023/05/03 09:11:29;;;;;;;13.60;12.20;;;;;;;11.64;98.91;97452.33;109188;1269;25034;-82
2023/05/03 09:14:11;;;;;;;15.00;12.40;;;;;;;11.62;99.14;97448.76;109128;1273;23471;-82
2023/05/03 09:16:44;;;;;;;13.90;12.50;;;;;;;11.65;99.20;97451.31;109224;1272;22665;-82
2023/05/03 09:19:16;;;;;;;12.90;11.60;;;;;;;11.64;99.01;97449.77;109179;1269;24336;-82
2023/05/03 09:21:48;;;;;;;13.80;12.40;;;;;;;11.52;98.64;97450.08;109191;1267;22659;-82
2023/05/03 09:24:21;;;;;;;14.10;12.40;;;;;;;11.37;98.56;97446.11;109154;1269;22497;-82
2023/05/03 09:26:57;;;;;;;14.60;12.90;;;;;;;11.34;98.87;97447.86;109142;1269;22508;-83
2023/05/03 09:29:34;;;;;;;13.10;11.70;;;;;;;11.36;98.87;97449.23;109176;1267;22605;-82
2023/05/03 09:32:07;;;;;;;14.20;12.30;;;;;;;11.34;98.69;97451.16;109133;1273;22504;-83
2023/05/03 09:34:38;;;;;;;13.90;12.20;;;;;;;11.30;98.63;97452.95;109137;1269;22544;-81
2023/05/03 09:37:12;;;;;;;16.30;13.10;;;;;;;11.19;98.87;97455.84;109124;1272;22491;-81
2023/05/03 09:39:48;;;;;;;16.40;14.70;;;;;;;11.16;99.29;97456.69;109134;1270;22651;-82
2023/05/03 09:42:21;;;;;;;15.40;13.80;;;;;;;11.20;99.69;97454.36;109141;1272;23172;-82
2023/05/03 09:44:53;;;;;;;15.80;14.10;;;;;;;11.23;99.61;97450.02;109122;1269;25352;-81
2023/05/03 09:47:24;;;;;;;15.40;13.90;;;;;;;11.22;99.61;97453.83;109097;1269;22590;-82
2023/05/03 09:49:55;;;;;;;16.30;14.50;;;;;;;11.16;99.29;97456.21;109152;1269;22522;-81
2023/05/03 09:52:29;;;;;;;16.50;14.80;;;;;;;11.17;99.63;97457.91;109142;1266;25284;-82
2023/05/03 09:55:00;;;;;;;14.20;12.70;;;;;;;11.18;99.61;97462.73;109200;1269;22472;-82
2023/05/03 09:57:32;;;;;;;19.10;17.10;;;;;;;11.18;99.46;97460.45;109108;1267;25411;-82
2023/05/03 10:00:05;;;;;;;17.60;15.90;;;;;;;11.20;99.58;97462.00;109129;1267;22539;-82
2023/05/03 10:02:37;;;;;;;17.30;15.60;;;;;;;11.27;99.91;97460.95;109124;1272;22802;-82
2023/05/03 10:05:12;;;;;;;17.50;15.60;;;;;;;11.39;99.95;97461.26;109136;1272;25402;-82
2023/05/03 10:07:44;;;;;;;16.30;14.30;;;;;;;11.47;99.93;97461.05;109190;1272;25291;-82
2023/05/03 10:10:15;;;;;;;13.10;11.70;;;;;;;11.52;99.64;97462.60;109197;1270;24334;-82
2023/05/03 10:12:48;;;;;;;11.90;10.30;;;;;;;11.39;98.74;97459.72;109206;1272;25265;-81
2023/05/03 10:15:22;;;;;;;14.50;11.80;;;;;;;11.36;99.21;97459.65;109150;1273;22604;-82
2023/05/03 10:17:57;;;;;;;13.60;12.20;;;;;;;11.47;99.40;97459.80;109208;1272;22529;-82
2023/05/03 10:20:33;;;;;;;12.80;11.50;;;;;;;11.48;99.31;97460.01;109175;1273;22566;-82
2023/05/03 10:23:12;;;;;;;11.60;10.00;;;;;;;11.47;99.28;97460.16;109188;1268;25229;-82
2023/05/03 10:26:15;;;;;;;9.10;6.70;;;;;;;11.36;97.20;97462.59;109131;1273;22549;-82
2023/05/03 10:28:46;;;;;;;8.30;6.40;;;;;;;11.10;96.68;97466.27;109198;1272;23868;-81
2023/05/03 10:31:47;;;;;;;9.10;7.40;;;;;;;11.03;96.86;97466.40;109154;1270;22523;-82
2023/05/03 10:34:31;;;;;;;9.60;7.20;;;;;;;11.06;97.18;97466.20;109131;1269;22548;-81
2023/05/03 10:37:09;;;;;;;9.20;8.20;;;;;;;11.09;97.05;97471.50;109149;1270;22615;-81
2023/05/03 10:39:46;;;;;;;9.60;8.50;;;;;;;11.12;97.20;97469.15;109181;1273;22518;-81
2023/05/03 10:42:17;;;;;;;11.00;9.40;;;;;;;11.16;97.28;97471.66;109146;1272;25403;-82
2023/05/03 10:44:54;;;;;;;11.30;9.10;;;;;;;11.22;97.58;97475.86;109121;1273;22527;-81
2023/05/03 10:47:26;;;;;;;10.40;9.30;;;;;;;11.27;97.58;97473.92;109180;1267;22511;-81
2023/05/03 10:50:26;;;;;;;10.80;9.20;;;;;;;11.33;97.91;97475.05;109189;1273;24018;-81
2023/05/03 10:52:57;;;;;;;11.00;9.80;;;;;;;11.40;98.03;97473.95;109160;1269;22521;-81
2023/05/03 10:55:29;;;;;;;11.70;10.20;;;;;;;11.43;97.89;97473.75;109147;1272;22672;-81
2023/05/03 10:58:02;;;;;;;12.30;9.90;;;;;;;11.45;97.61;97476.36;109189;1267;23465;-81
2023/05/03 11:00:39;;;;;;;11.60;10.30;;;;;;;11.44;97.65;97479.38;109165;1269;23800;-81
2023/05/03 11:03:24;;;;;;;11.70;10.40;;;;;;;11.46;97.93;97475.40;109196;1272;24231;-81
2023/05/03 11:05:56;;;;;;;11.80;10.60;;;;;;;11.49;97.94;97470.89;109118;1267;22559;-81
2023/05/03 11:08:29;;;;;;;11.60;10.30;;;;;;;11.54;98.11;97471.52;109178;1273;22516;-81
2023/05/03 11:11:01;;;;;;;12.50;11.20;;;;;;;11.57;98.08;97471.66;109189;1267;22534;-82
2023/05/03 11:13:33;;;;;;;12.50;11.30;;;;;;;11.59;97.92;97473.04;109189;1270;23783;-81
2023/05/03 11:16:05;;;;;;;12.10;10.80;;;;;;;11.58;97.85;97473.52;109196;1271;24378;-82
2023/05/03 11:18:36;;;;;;;11.30;10.00;;;;;;;11.57;97.67;97473.98;109144;1273;22578;-82
2023/05/03 11:21:07;;;;;;;11.90;10.30;;;;;;;11.47;97.07;97475.98;109155;1270;22590;-82
2023/05/03 11:23:40;;;;;;;10.40;9.20;;;;;;;11.36;96.48;97474.89;109202;1269;24922;-82
2023/05/03 11:26:12;;;;;;;9.90;8.40;;;;;;;11.17;96.75;97479.77;109210;1273;22585;-82
2023/05/03 11:28:44;;;;;;;9.50;8.50;;;;;;;11.05;97.21;97480.05;109220;1272;23933;-82
2023/05/03 11:31:15;;;;;;;10.80;9.70;;;;;;;10.97;98.13;97486.91;109263;1273;22530;-82
2023/05/03 11:33:46;;;;;;;10.90;9.80;;;;;;;10.92;98.85;97483.38;109203;1267;25396;-82
2023/05/03 11:36:17;;;;;;;11.50;9.60;;;;;;;11.09;99.10;97479.42;109280;1273;22608;-82
2023/05/03 11:38:48;;;;;;;13.10;9.60;;;;;;;11.24;98.95;97477.67;109177;1270;22469;-82
2023/05/03 11:41:20;;;;;;;12.00;10.30;;;;;;;11.34;98.49;97474.56;109214;1272;22566;-82
2023/05/03 11:43:51;;;;;;;10.60;9.50;;;;;;;11.28;97.87;97477.59;109221;1251;22525;-82